wCOLYR

 

 

Western Colorado One Loft Youth Race - Race 3 - Black Mesa Arizona-203 miles

Station: Black Mesa - A Race

Distance: 203.833 Miles    

Release: 26-Sep-2021 08:40

Weather Release:    Arrival:

Wind at Release:     Wind at Arrival:

Temp at Release: °    Temp at Arrival: °

Lofts: 95

Birds: 101

Clocked: 76

Good Luck to Everyone!
Drops Pos Breeder Pigeon Name Color Sex Ent Arrival Speed To Win Elg Pd
1 Blair Of Seven Strong - MD 10793-AU21-FOYS Rip Tide GRIZ H 1 13:10:34.40 1325.873 00:00:00 Yes
2 Erins Loft - CO 0429-AU21-WEIR Michael BB H 1 13:10:35.50 1325.783 00:00:01 Yes
3 Afton Young Loft - ID 24791-AU21-JEDD BC H 1 13:10:38.50 1325.538 00:00:04 Yes
4 David Of Seven Strong - MD 10787-AU21-FOYS Blue Ranger BC H 1 13:10:38.90 1325.505 00:00:05 Yes
5 Maury Jr Loft - CO 0053-AU21-GJC BB H 1 13:10:40.20 1325.399 00:00:06 Yes
6 Le Loft - CO 89965-AU21-ARPU BC H 1 13:10:41.80 1325.269 00:00:07 Yes
7 E44 Jr Loft - TX 0406-AU21-PINE DC H 1 13:10:42.90 1325.179 00:00:09 Yes
8 Ecuevas - TX 0887-AU21-DALL BB H 1 13:10:46.20 1324.910 00:00:12 Yes
9 Evelyn Of Seven Strong - MD 102022-AU21-ARPU King George SLTW H 1 13:10:47.20 1324.828 00:00:13 Yes
10 Ryker Of Murders Loft - CO 95407-AU21-ARPU Bumblebee BB H 1 13:10:53.00 1324.355 00:00:19 Yes
11 CAsLoft2 - MN 2711-AU21-FOYS Flash BB H 1 13:10:56.10 1324.103 00:00:22 Yes
12 Josie Loft - TX 0418-AU21-WEIR BC H 1 13:21:38.70 1273.752 00:11:04 Yes
13 Johnnys Loft - FL 0091-AU21-MAZZ Oreo GRIZ H 1 13:21:53.50 1272.637 00:11:19 Yes
14 Cloud 9 - WI 2210-AU21-JEDD GRIZ H 1 13:21:56.00 1272.449 00:11:22 Yes
15 Evelyn Of Seven Strong - MD 102030-AU21-ARPU Fudge CHOC H 2 13:22:01.40 1272.043 00:11:27 Yes
16 Parkers Loft1 - OH 1105-AU21-FLU BB H 1 13:23:37.10 1264.889 00:13:03 Yes
17 Paul Jackson Loft - TX 0201-AU21-AMA Flash RC H 1 13:25:11.00 1257.948 00:14:37 Yes
18 Douzat - TX 95409-AU21-ARPU BC H 1 13:25:13.30 1257.779 00:14:39 Yes
19 HundFamilyLoftMeghan - CO 0001-AU21-GJC RC H 1 13:26:40.80 1251.381 00:16:06 Yes
20 Lilly Loft - CO 89970-AU21-ARPU BCSP H 1 13:27:02.80 1249.782 00:16:28 Yes
21 Super Saiyan - WI 0022-AU21-FRNT BB H 1 13:29:14.70 1240.284 00:18:40 Yes
22 Green Family Lofts 3 - ID 4505-AU21-WII Takis DC H 1 13:29:16.90 1240.126 00:18:43 Yes
23 Blanco Loft - IN 0006-AU21-BLAN Magic 6 BC H 1 13:29:17.80 1240.062 00:18:43 Yes
24 Santy Loft - MN 3000-AU21-MM BB H 1 13:29:19.20 1239.962 00:18:45 Yes
25 Jades Loft - FL 0003-AU21-MAZZ Cupcake BCSP H 1 13:29:21.20 1239.819 00:18:47 Yes
26 CAsLoft1 - MN 2713-AU21-FOYS Nap Time GRIZ H 1 13:29:23.00 1239.691 00:18:49 Yes
27 Earthquake - NV 0127-AU21-JEDD 1579-6066 BBWF H 1 13:29:23.60 1239.648 00:18:49 Yes
28 Glass - TX 95414-AU21-ARPU SILV H 1 13:29:25.30 1239.527 00:18:51 Yes
29 Mckenna 2 - CO 0418-AU21-GJC BC H 1 13:39:18.30 1198.596 00:28:44 Yes
30 Ve Family Loft 1 - VA 4206-AU21-FOYS Garmin BB H 1 13:42:34.40 1185.649 00:32:00 Yes
31 Super Saiyan - WI 0014-AU21-FRNT BB H 2 13:42:45.70 1184.912 00:32:11 Yes
32 208Lofts-ColtonNield - ID 0203-AU21-L208 BBPI H 1 13:43:17.60 1182.835 00:32:43 Yes
33 Megan's Loft - CA 0213-AU21-COM Shooting Star BB H 1 13:43:23.10 1182.477 00:32:49 Yes
34 Pringles Loft - CA 17515-AU21-JEDD Super Potatot BCWF H 1 13:45:58.60 1172.461 00:35:24 Yes
35 Green Family Lofts 2 - ID 4502-AU21-WII Red RC H 1 13:46:00.60 1172.334 00:35:26 Yes
36 Josie Loft - TX 0420-AU21-WEIR BC H 2 13:46:04.70 1172.072 00:35:30 Yes
37 Redlegs Loft - PA 13305-AU21-AA Easy Beach BB H 1 13:46:08.70 1171.817 00:35:34 Yes
38 RandolphRacers - AL 0680-IF21-PAOF Dancer BB H 1 13:48:01.80 1164.646 00:37:27 Yes
39 Wild Wings - GP and R - MI 0097-AU21-FC BB H 1 13:48:24.10 1163.242 00:37:50 Yes
40 E44 Jr Loft - TX 0411-AU21-PINE BB H 2 13:49:56.50 1157.462 00:39:22 Yes
41 Hayes Brothers Loft 1 - NC 21403-AU21-FAY BC H 1 13:50:43.30 1154.557 00:40:09 Yes
42 El Locos Loft - CA 0010-AU21-HDC Loco Jr. BB H 1 13:50:45.60 1154.414 00:40:11 Yes
43 Super K Loft - MN 0530-AU21-VIK "check Out" BC H 1 13:52:26.00 1148.232 00:41:52 Yes
44 Mckenna 2 - CO 0408-AU21-GJC BCSP H 2 13:59:58.10 1121.192 00:49:24 Yes
45 Jolly Roger - MS 7136-AU21-SMRP Escape BC H 1 14:58:46.80 947.109 01:48:12 Yes
46 Van Eyk Family Loft 1 - VA 0029-AU21-SVRP Ida BB H 1 15:03:32.40 935.354 01:52:58 Yes
47 Monse Family Loft - CO 0025-AU21-TUNA BB H 1 15:03:37.00 935.167 01:53:03 Yes
48 Laugbhlin Loft - UT 0330-AU21-SBEL BB H 1 15:30:05.20 874.805 02:19:31 Yes
49 Laughlin Loft Jr - UT 46690-AU21-JEDD Trip Wire GRIZ H 1 15:43:11.20 847.725 02:32:37 Yes
50 208Lofts-ColtonNield - ID 0201-AU21-L208 BC H 2 15:47:21.50 839.450 02:36:47 Yes
51 Shovers Lakeside Lofts - OH 3043-AU21-FOYS Back-N-Flash MEAL H 1 15:47:34.00 839.041 02:37:00 Yes
52 Green Family Lofts 1 - ID 4504-AU21-WII Cutie BC H 1 16:01:28.60 812.604 02:50:54 Yes
53 Monse Family Loft - CO 0023-AU21-TUNA BBSP H 2 16:15:49.70 787.020 03:05:15 Yes
54 Hmns 5 - CO 21545-AU21-FH BB H 1 16:34:14.70 756.457 03:23:40 Yes
55 Hund Family Loft Anthony - CO 0002-AU21-GJC Archer BB H 1 17:32:08.50 674.155 04:21:34 Yes
56 Jaxon Of Murders Loft - CO 95408-AU21-ARPU Jessie BB H 1 18:00:39.00 639.875 04:50:05 Yes
57 Angel Loft 3 - CO 0055-AU21-GJC BB H 1 18:23:58.10 614.324 05:13:24 Yes
58 Laqu Lofts - MI 6624-AU21-ARPU Wonder Kid BC H 1 2021-09-27 07:25:31.50 511.368 07:10:58 Yes
59 James Of Seven Strong - MD 10799-AU21-FOYS Red Grizzle GRIZ H 1 2021-09-27 09:02:23.90 449.323 08:47:50 Yes
60 Lilly Loft - CO 89968-AU21-ARPU DC H 2 2021-09-27 09:09:42.60 445.245 08:55:09 Yes
61 Charlottes Loft - CA 25310-AU21-AA BC H 1 2021-09-27 09:14:03.60 442.854 08:59:30 Yes
62 Paradise - TX 19475-AU21-FOYS BC H 1 2021-09-27 09:25:47.40 436.533 09:11:14 Yes
63 Ace Loft - WI 2204-AU21-JEDD DCWF H 1 2021-09-27 09:26:19.10 436.253 09:11:46 Yes
64 Megan's Loft - CA 2148-AU21-GROE Zuko BB H 2 2021-09-27 09:38:30.10 429.884 09:23:57 Yes
65 Born2raceloft - MN 43053-AU21-ARPU BBWF H 1 2021-09-27 09:38:38.30 429.813 09:24:05 Yes
66 Trenton Of Nightfalls Loft - MI 0301-AU21-GRM BB H 1 2021-09-27 09:43:24.10 427.374 09:28:51 Yes
67 4h Thunderbirds 1 - WA 0103-AU21-RPM BB H 1 2021-09-27 10:13:52.00 412.407 09:59:19 Yes
68 Tater Bug Loft - NC 0125-IF21-TRC INDI H 1 2021-09-27 10:24:35.40 407.385 10:10:02 Yes
69 Born2raceloft - MN 43054-AU21-ARPU BB H 2 2021-09-27 10:38:38.80 400.984 10:24:05 Yes
70 Cloud 9 - WI 0013-AU21-FRNT GRIZ H 2 2021-09-27 10:49:58.70 395.969 10:35:25 Yes
71 Hmns 3 - CO 21534-AU21-FH BB H 1 2021-09-27 11:06:39.30 388.812 10:52:06 Yes
72 Mack Watkins - NC 21215-AU21-FAY BB H 1 2021-09-27 11:29:30.30 379.416 11:14:57 Yes
73 Hmns 1 - CO 21530-AU21-FH BC H 1 2021-09-27 11:48:13.40 372.050 11:33:40 Yes
74 Green Family Lofts 3 - ID 4503-AU21-WII Kojo BC H 2 2021-09-27 13:07:32.20 343.773 12:52:59 Yes
75 CAsLoft1 - MN 2712-AU21-FOYS Gap GRIZ H 2 2021-09-27 13:46:55.30 331.271 13:32:22 Yes
76 Geon Loft - WI 0010-AU21-FRNT BC H 1 2021-09-27 14:14:08.90 323.146 13:59:36 Yes
Charlottes Loft - CA 25320-AU21-AA BB H 00:00:00.00 0.000 Yes
Wick 54 - MS 7003-AU21-SMRP Comet BBWF H 00:00:00.00 0.000 Yes
Mcuevas - TX 0895-AU21-DALL BB H 00:00:00.00 0.000 Yes
Effie's Loft - NC 21216-AU21-FAY BB H 00:00:00.00 0.000 Yes
Le Loft - CO 89967-AU21-ARPU BC H 00:00:00.00 0.000 Yes
Paul Jackson Loft - TX 0202-AU21-AMA Silver Joe SILV H 00:00:00.00 0.000 Yes
David Of Seven Strong - MD 102021-AU21-ARPU Spider Man BC H 00:00:00.00 0.000 Yes
Avree Loft - CO 95404-AU21-ARPU BB H 00:00:00.00 0.000 Yes
Jalyssa’s Loft - CO 1468-AU21-PPH BC H 00:00:00.00 0.000 Yes
Gavins Loft - IL 1157-AU21-JEDD Core-Al SILV H 00:00:00.00 0.000 Yes
Laqu Lofts - MI 6626-AU21-ARPU Porsche Spyder BC H 00:00:00.00 0.000 Yes
DonateLife - NC 21404-AU21-FAY DC H 00:00:00.00 0.000 Yes
Ve Family Loft 2 - VA 4217-AU21-FOYS Speedy BC H 00:00:00.00 0.000 Yes
Isaiah Of Nightfalls Loft - MI 0321-AU21-GRM BB H 00:00:00.00 0.000 Yes
Whitlock Loft - SD 2161-AU21-LCR Ozzy BC H 00:00:00.00 0.000 Yes
208Lofts-LandonNield - ID 0202-AU21-L208 BB H 00:00:00.00 0.000 Yes
Sassy Squatch Loft - NC 0132-IF21-TRC BB H 00:00:00.00 0.000 Yes
Parkers Loft1 - OH 1102-AU21-FLU BCWF H 00:00:00.00 0.000 Yes
Maury Jr Loft - CO 0061-AU21-GJC DCWF H 00:00:00.00 0.000 Yes
Jaxon Of Fod - IA 46152-AU21-ARPU BBSP H 00:00:00.00 0.000 Yes
Angel Loft 3 - CO 0056-AU21-GJC BC H 00:00:00.00 0.000 Yes
Sassy Squatch Loft - NC 0134-IF21-TRC BB H 00:00:00.00 0.000 Yes
4h Thunderbirds 3 - WA 6579-AU21-STIL BC H 00:00:00.00 0.000 Yes

There are 99 bird records

Note: These Race Results are unofficial and subject to change until verified by the Race Committee and declared final.

 

windy FaceBook